Time;durP1;ratioP1;P1;durP2;ratioP2;P2;SDS_P1;SDS_P2;PMS_P1;PMS_P2;Temp;Humidity;BMP_temperature;BMP_pressure;BME280_temperature;BME280_humidity;BME280_pressure;Samples;Min_cycle;Max_cycle;Signal;HPM_P1;HPM_P2
2022/02/24 00:00:51;;;;;;;7.13;3.93;;;;;;;-0.78;100.00;101231.00;6074814;23;20555;-81
2022/02/24 00:03:18;;;;;;;6.37;3.87;;;;;;;-0.85;100.00;101231.59;6100545;23;20026;-83
2022/02/24 00:05:45;;;;;;;5.73;3.20;;;;;;;-0.82;100.00;101234.31;6123565;23;20025;-81
2022/02/24 00:08:12;;;;;;;7.03;3.40;;;;;;;-0.81;100.00;101227.44;6077004;23;20630;-80
2022/02/24 00:10:39;;;;;;;5.03;2.83;;;;;;;-0.89;100.00;101230.63;6099179;23;20445;-82
2022/02/24 00:13:05;;;;;;;5.87;3.50;;;;;;;-0.89;100.00;101233.22;6100485;23;20048;-83
2022/02/24 00:15:35;;;;;;;5.20;3.03;;;;;;;-0.92;100.00;101230.53;6099310;23;20026;-84
2022/02/24 00:18:05;;;;;;;6.77;3.00;;;;;;;-0.85;100.00;101229.00;6078174;23;20032;-79
2022/02/24 00:20:32;;;;;;;4.67;3.03;;;;;;;-0.91;100.00;101228.81;6102738;23;20458;-83
2022/02/24 00:23:05;;;;;;;6.90;3.20;;;;;;;-0.86;100.00;101228.13;6102242;23;20458;-82
2022/02/24 00:25:32;;;;;;;6.77;3.67;;;;;;;-0.85;100.00;101226.41;6100805;23;20061;-83
2022/02/24 00:27:58;;;;;;;8.90;3.40;;;;;;;-0.88;100.00;101223.72;6077112;23;20121;-81
2022/02/24 00:30:25;;;;;;;6.17;3.53;;;;;;;-0.89;100.00;101232.34;6077646;23;20402;-84
2022/02/24 00:32:52;;;;;;;8.60;3.77;;;;;;;-0.88;100.00;101218.53;6100087;23;20032;-80
2022/02/24 00:35:19;;;;;;;8.40;3.37;;;;;;;-0.85;100.00;101214.31;6098879;23;20025;-82
2022/02/24 00:37:45;;;;;;;9.50;4.17;;;;;;;-0.80;100.00;101206.72;6100538;23;20022;-84
2022/02/24 00:40:12;;;;;;;8.13;4.83;;;;;;;-0.79;100.00;101215.38;6099470;23;20022;-80
2022/02/24 00:42:39;;;;;;;10.67;4.23;;;;;;;-0.82;100.00;101205.78;6099431;23;20022;-83
2022/02/24 00:45:08;;;;;;;6.53;3.30;;;;;;;-0.86;100.00;101209.09;6098507;23;20382;-84
2022/02/24 00:47:35;;;;;;;7.10;4.00;;;;;;;-0.88;100.00;101201.25;6100277;23;20026;-82
2022/02/24 00:50:03;;;;;;;11.20;4.37;;;;;;;-0.90;100.00;101208.13;6099083;23;20022;-84
2022/02/24 00:52:29;;;;;;;6.97;3.30;;;;;;;-0.85;100.00;101201.34;6076609;23;20022;-81
2022/02/24 00:54:56;;;;;;;4.70;3.43;;;;;;;-0.87;100.00;101195.25;6098282;23;20032;-83
2022/02/24 00:57:23;;;;;;;5.60;3.23;;;;;;;-0.87;100.00;101197.84;6075489;23;20022;-80
2022/02/24 00:59:50;;;;;;;8.47;3.20;;;;;;;-0.88;100.00;101192.59;6075224;23;20025;-83
2022/02/24 01:02:16;;;;;;;9.90;3.70;;;;;;;-0.85;100.00;101188.38;6122889;23;20385;-84
2022/02/24 01:04:43;;;;;;;7.23;3.20;;;;;;;-0.87;100.00;101189.19;6074889;23;20038;-82
2022/02/24 01:07:14;;;;;;;8.53;3.73;;;;;;;-0.87;100.00;101187.47;6099022;23;20522;-82
2022/02/24 01:09:41;;;;;;;9.47;3.63;;;;;;;-0.75;100.00;101184.44;6075004;23;20026;-83
2022/02/24 01:12:08;;;;;;;7.97;3.37;;;;;;;-0.77;100.00;101173.09;6099210;23;20018;-82
2022/02/24 01:14:38;;;;;;;8.03;4.00;;;;;;;-0.73;100.00;101171.50;6074007;23;20029;-81
2022/02/24 01:17:05;;;;;;;10.03;5.00;;;;;;;-0.70;100.00;101158.63;6099474;23;20033;-83
2022/02/24 01:19:31;;;;;;;7.50;4.03;;;;;;;-0.65;100.00;101152.75;6099394;23;20029;-81
2022/02/24 01:21:58;;;;;;;8.63;4.07;;;;;;;-0.64;100.00;101153.63;6098613;23;20105;-82
2022/02/24 01:24:25;;;;;;;11.13;4.30;;;;;;;-0.61;100.00;101158.91;6122791;23;20033;-82
2022/02/24 01:26:51;;;;;;;6.63;3.60;;;;;;;-0.55;100.00;101153.94;6122777;23;20570;-81
2022/02/24 01:29:19;;;;;;;7.83;4.23;;;;;;;-0.43;100.00;101149.13;6074839;23;20022;-81
2022/02/24 01:31:46;;;;;;;7.10;3.97;;;;;;;-0.44;100.00;101142.16;6075871;23;20026;-82
2022/02/24 01:34:13;;;;;;;11.47;4.73;;;;;;;-0.36;100.00;101134.63;6074610;23;20112;-82
2022/02/24 01:36:39;;;;;;;6.40;3.80;;;;;;;-0.40;100.00;101136.25;6097342;23;20113;-84
2022/02/24 01:39:06;;;;;;;5.53;3.90;;;;;;;-0.34;100.00;101138.13;6100024;23;20029;-83
2022/02/24 01:41:32;;;;;;;7.03;4.00;;;;;;;-0.38;100.00;101131.09;6122570;23;20108;-81
2022/02/24 01:44:11;;;;;;;10.03;4.50;;;;;;;-0.34;100.00;101126.06;6087932;23;20006;-93
2022/02/24 01:46:38;;;;;;;9.90;4.37;;;;;;;-0.29;100.00;101116.69;6014711;23;20014;-93
2022/02/24 01:49:09;;;;;;;8.47;4.60;;;;;;;-0.26;100.00;101121.09;6064197;23;20022;-92
2022/02/24 01:51:37;;;;;;;5.20;3.60;;;;;;;-0.31;100.00;101109.69;6020518;23;20005;-93
2022/02/24 01:54:06;;;;;;;9.17;4.30;;;;;;;-0.35;100.00;101108.69;6012994;23;20025;-93
2022/02/24 01:56:37;;;;;;;8.30;4.57;;;;;;;-0.35;100.00;101107.81;6036151;23;20015;-94
2022/02/24 01:59:06;;;;;;;7.07;4.00;;;;;;;-0.37;100.00;101107.78;5991156;23;20015;-94
2022/02/24 02:01:33;;;;;;;7.63;4.13;;;;;;;-0.39;100.00;101103.38;6014346;23;20011;-93
2022/02/24 02:04:00;;;;;;;8.03;4.00;;;;;;;-0.40;100.00;101092.13;6015310;23;20018;-92
2022/02/24 02:06:31;;;;;;;9.63;4.07;;;;;;;-0.40;100.00;101097.31;6014609;23;20070;-93
2022/02/24 02:08:58;;;;;;;6.77;4.00;;;;;;;-0.40;100.00;101096.44;6038582;23;20026;-92
2022/02/24 02:11:27;;;;;;;7.37;3.93;;;;;;;-0.38;100.00;101099.94;6038341;23;20003;-94
2022/02/24 02:13:54;;;;;;;10.13;5.20;;;;;;;-0.35;100.00;101085.34;6014812;23;20048;-93
2022/02/24 02:16:21;;;;;;;11.93;4.30;;;;;;;-0.41;100.00;101082.56;6037298;23;20015;-93
2022/02/24 02:18:52;;;;;;;10.07;4.60;;;;;;;-0.38;100.00;101069.69;5993303;23;20018;-93
2022/02/24 02:21:19;;;;;;;10.43;4.50;;;;;;;-0.35;100.00;101074.97;6015089;23;20165;-94
2022/02/24 02:23:48;;;;;;;9.00;5.17;;;;;;;-0.29;100.00;101056.09;5991377;23;20075;-94
2022/02/24 02:26:15;;;;;;;10.73;4.67;;;;;;;-0.23;100.00;101055.41;5991230;23;20038;-92
2022/02/24 02:28:41;;;;;;;14.37;5.17;;;;;;;-0.20;100.00;101052.88;6038220;23;20007;-93
2022/02/24 02:31:10;;;;;;;10.03;4.80;;;;;;;-0.18;100.00;101065.06;6014666;23;20015;-93
2022/02/24 02:33:39;;;;;;;7.27;4.03;;;;;;;-0.14;100.00;101048.75;6038000;23;20007;-91
2022/02/24 02:36:08;;;;;;;9.80;4.00;;;;;;;-0.18;100.00;101044.28;5990913;23;20016;-93
2022/02/24 02:38:35;;;;;;;11.80;4.63;;;;;;;-0.18;100.00;101046.00;5991769;23;20007;-91
2022/02/24 02:41:02;;;;;;;5.90;4.07;;;;;;;-0.22;100.00;101045.06;6015067;23;20015;-92
2022/02/24 02:43:31;;;;;;;10.30;4.63;;;;;;;-0.19;100.00;101044.25;6014835;23;20003;-93
2022/02/24 02:45:59;;;;;;;6.53;4.27;;;;;;;-0.22;100.00;101033.78;6042208;23;20021;-93
2022/02/24 02:48:25;;;;;;;9.87;4.83;;;;;;;-0.20;100.00;101027.81;6045141;23;20013;-92
2022/02/24 02:50:54;;;;;;;8.03;4.80;;;;;;;-0.17;100.00;101022.72;6069060;23;20026;-92
2022/02/24 02:53:21;;;;;;;9.20;4.20;;;;;;;-0.25;100.00;101024.22;6068111;23;20018;-93
2022/02/24 02:55:48;;;;;;;9.50;4.03;;;;;;;-0.25;100.00;101024.22;6021437;23;20404;-94
2022/02/24 02:58:17;;;;;;;10.47;4.33;;;;;;;-0.21;100.00;101012.19;6046774;23;20074;-92
2022/02/24 03:00:45;;;;;;;8.17;4.20;;;;;;;-0.25;100.00;101010.31;6046619;23;20086;-91
2022/02/24 03:03:14;;;;;;;8.87;4.23;;;;;;;-0.35;100.00;101003.97;6048980;23;20007;-92
2022/02/24 03:05:41;;;;;;;7.53;4.13;;;;;;;-0.38;100.00;101003.91;6047703;23;20011;-93
2022/02/24 03:08:08;;;;;;;8.20;3.97;;;;;;;-0.43;100.00;101005.47;6072340;23;20063;-94
2022/02/24 03:10:37;;;;;;;10.63;4.93;;;;;;;-0.41;100.00;101006.44;6026743;23;20066;-92
2022/02/24 03:13:04;;;;;;;10.40;4.40;;;;;;;-0.30;100.00;100994.63;6048840;23;20007;-91
2022/02/24 03:15:31;;;;;;;9.13;4.17;;;;;;;-0.32;100.00;100993.72;6071407;23;20007;-93
2022/02/24 03:18:00;;;;;;;8.70;4.93;;;;;;;-0.32;100.00;100985.94;6040898;23;20021;-93
2022/02/24 03:20:32;;;;;;;10.43;4.63;;;;;;;-0.35;100.00;100983.22;6048839;23;20006;-95
2022/02/24 03:23:00;;;;;;;15.43;4.83;;;;;;;-0.33;100.00;100974.66;6049408;23;20021;-93
2022/02/24 03:25:27;;;;;;;10.40;5.20;;;;;;;-0.26;100.00;100974.81;6071483;23;20007;-93
2022/02/24 03:27:58;;;;;;;6.77;4.03;;;;;;;-0.29;100.00;100980.81;6048936;23;20015;-92
2022/02/24 03:30:25;;;;;;;10.90;4.60;;;;;;;-0.20;100.00;100975.00;6048631;23;20009;-93
2022/02/24 03:32:56;;;;;;;9.70;4.70;;;;;;;-0.22;100.00;100967.16;6049573;23;20026;-92
2022/02/24 03:35:23;;;;;;;11.93;4.90;;;;;;;-0.23;100.00;100970.59;6047788;23;20030;-92
2022/02/24 03:37:49;;;;;;;9.57;4.47;;;;;;;-0.24;100.00;100963.66;6025037;23;20020;-93
2022/02/24 03:40:19;;;;;;;7.33;4.07;;;;;;;-0.22;100.00;100963.69;6048757;23;20018;-92
2022/02/24 03:42:48;;;;;;;8.77;4.73;;;;;;;-0.17;100.00;100965.59;6048293;23;20030;-92
2022/02/24 03:45:18;;;;;;;8.00;4.83;;;;;;;-0.10;100.00;100957.09;6070453;23;20181;-92
2022/02/24 03:47:44;;;;;;;7.00;4.23;;;;;;;-0.16;100.00;100958.69;6048087;23;20022;-93
2022/02/24 03:50:15;;;;;;;11.90;4.20;;;;;;;-0.21;100.00;100955.06;6072355;23;20018;-94
2022/02/24 03:52:42;;;;;;;9.50;4.30;;;;;;;-0.21;100.00;100953.34;6048628;23;20027;-92
2022/02/24 03:55:13;;;;;;;7.30;3.97;;;;;;;-0.16;100.00;100943.09;6071307;23;20017;-92
2022/02/24 03:57:39;;;;;;;8.93;4.57;;;;;;;-0.15;100.00;100947.44;6071962;23;20074;-94
2022/02/24 04:00:07;;;;;;;11.27;4.63;;;;;;;-0.18;100.00;100936.97;6048254;23;20015;-93
2022/02/24 04:02:37;;;;;;;9.53;4.63;;;;;;;-0.21;100.00;100942.06;6070532;23;20002;-93
2022/02/24 04:05:04;;;;;;;9.40;4.40;;;;;;;-0.19;100.00;100943.00;6069664;23;20015;-94
2022/02/24 04:07:34;;;;;;;6.70;3.97;;;;;;;-0.17;100.00;100939.63;6070065;23;20026;-93
2022/02/24 04:10:04;;;;;;;11.47;4.43;;;;;;;-0.12;100.00;100931.94;6045935;23;20010;-92
2022/02/24 04:12:33;;;;;;;11.77;4.87;;;;;;;-0.14;100.00;100918.03;6069012;23;20313;-93
2022/02/24 04:15:00;;;;;;;5.97;3.60;;;;;;;-0.18;100.00;100931.75;6044182;23;20066;-92
2022/02/24 04:17:27;;;;;;;11.60;4.47;;;;;;;-0.09;100.00;100916.44;6045340;23;20014;-93
2022/02/24 04:19:58;;;;;;;9.03;4.40;;;;;;;-0.18;100.00;100908.41;6046432;23;20003;-94
2022/02/24 04:22:24;;;;;;;9.23;4.37;;;;;;;-0.09;100.00;100903.44;6022195;23;20026;-92
2022/02/24 04:24:55;;;;;;;7.00;4.63;;;;;;;-0.15;100.00;100905.91;6068457;23;20026;-94
2022/02/24 04:27:21;;;;;;;10.53;4.67;;;;;;;-0.10;100.00;100892.19;6046181;23;20015;-94
2022/02/24 04:29:49;;;;;;;7.17;4.33;;;;;;;-0.15;100.00;100896.38;6045559;23;20029;-92
2022/02/24 04:32:17;;;;;;;8.10;4.47;;;;;;;-0.19;100.00;100891.94;6045957;23;20011;-92
2022/02/24 04:34:44;;;;;;;9.00;4.70;;;;;;;-0.18;100.00;100890.22;6044339;23;20178;-92
2022/02/24 04:37:11;;;;;;;9.13;4.60;;;;;;;-0.10;100.00;100884.38;6069066;23;20017;-92
2022/02/24 04:39:40;;;;;;;12.63;4.13;;;;;;;-0.21;100.00;100883.25;6044971;23;20007;-92
2022/02/24 04:42:07;;;;;;;14.47;4.93;;;;;;;-0.18;100.00;100878.13;6045168;23;20045;-92
2022/02/24 04:44:36;;;;;;;6.83;4.57;;;;;;;-0.14;100.00;100882.56;6050477;23;20015;-94
2022/02/24 04:47:05;;;;;;;7.17;4.30;;;;;;;-0.12;100.00;100874.81;6093005;23;20007;-94
2022/02/24 04:49:34;;;;;;;9.10;4.23;;;;;;;-0.17;100.00;100864.31;6092537;23;20025;-93
2022/02/24 04:52:01;;;;;;;9.30;4.63;;;;;;;-0.18;100.00;100872.91;6045902;23;20013;-94
2022/02/24 04:54:28;;;;;;;12.13;4.77;;;;;;;-0.15;100.00;100866.94;6068147;23;20015;-94
2022/02/24 04:56:57;;;;;;;8.13;3.90;;;;;;;-0.22;100.00;100855.53;6068349;23;20015;-93
2022/02/24 04:59:28;;;;;;;7.97;3.78;;;;;;;-0.13;100.00;100863.53;6069603;23;20015;-92
2022/02/24 05:01:58;;;;;;;10.27;4.43;;;;;;;-0.11;100.00;100856.66;6069361;23;20002;-93
2022/02/24 05:04:24;;;;;;;8.37;4.60;;;;;;;-0.08;100.00;100858.50;6068215;23;20082;-92
2022/02/24 05:06:51;;;;;;;7.63;4.37;;;;;;;-0.15;100.00;100854.84;6045051;23;20056;-93
2022/02/24 05:09:21;;;;;;;9.37;4.13;;;;;;;-0.04;100.00;100853.38;6045979;23;20014;-93
2022/02/24 05:11:48;;;;;;;8.27;3.73;;;;;;;-0.13;100.00;100850.56;6069119;23;20029;-93
2022/02/24 05:14:17;;;;;;;8.60;4.17;;;;;;;-0.04;100.00;100843.00;6044878;23;20034;-92
2022/02/24 05:16:44;;;;;;;10.80;4.20;;;;;;;-0.02;100.00;100843.91;6068488;23;20013;-94
2022/02/24 05:19:11;;;;;;;8.57;3.70;;;;;;;-0.03;100.00;100841.28;6045299;23;20022;-93
2022/02/24 05:21:40;;;;;;;7.83;3.73;;;;;;;0.02;100.00;100838.81;6068598;23;20082;-93
2022/02/24 05:24:07;;;;;;;7.97;4.17;;;;;;;-0.03;100.00;100839.56;6045011;23;20017;-93
2022/02/24 05:26:34;;;;;;;13.87;4.33;;;;;;;0.03;100.00;100827.59;6091596;23;20034;-94
2022/02/24 05:29:05;;;;;;;10.40;4.10;;;;;;;0.07;100.00;100826.81;6070217;23;20023;-93
2022/02/24 05:31:32;;;;;;;9.07;3.60;;;;;;;0.01;100.00;100830.16;6043393;23;20074;-93
2022/02/24 05:34:02;;;;;;;9.27;4.80;;;;;;;-0.12;100.00;100823.75;6090744;23;20011;-93
2022/02/24 05:36:28;;;;;;;8.03;4.33;;;;;;;-0.11;100.00;100816.84;6066591;23;20030;-92
2022/02/24 05:38:55;;;;;;;8.10;4.67;;;;;;;-0.10;100.00;100811.69;6043283;23;20027;-94
2022/02/24 05:41:25;;;;;;;9.30;3.63;;;;;;;-0.13;100.00;100811.63;6068448;23;20034;-93
2022/02/24 05:43:52;;;;;;;7.63;3.80;;;;;;;-0.14;100.00;100814.19;6067245;23;20013;-92
2022/02/24 05:46:21;;;;;;;8.30;4.17;;;;;;;-0.12;100.00;100813.38;6042664;23;20015;-94
2022/02/24 05:48:48;;;;;;;7.73;4.20;;;;;;;-0.19;100.00;100811.44;6043603;23;20010;-93
2022/02/24 05:51:16;;;;;;;7.57;3.73;;;;;;;-0.23;100.00;100803.56;6043998;23;20027;-94
2022/02/24 05:53:45;;;;;;;9.20;3.40;;;;;;;-0.16;100.00;100800.28;6042608;23;20197;-93
2022/02/24 05:56:12;;;;;;;6.73;3.40;;;;;;;-0.19;100.00;100803.66;6042799;23;20075;-93
2022/02/24 05:58:42;;;;;;;7.07;3.60;;;;;;;-0.17;100.00;100801.09;6020485;23;20017;-95
2022/02/24 06:01:10;;;;;;;7.17;3.43;;;;;;;-0.19;100.00;100803.66;6042424;23;20015;-94
2022/02/24 06:03:37;;;;;;;9.40;4.20;;;;;;;-0.11;100.00;100798.66;6067155;23;20022;-93
2022/02/24 06:06:06;;;;;;;7.40;3.53;;;;;;;-0.09;100.00;100796.97;6043021;23;20347;-93
2022/02/24 06:08:33;;;;;;;10.90;3.90;;;;;;;-0.10;100.00;100790.91;6044603;23;20002;-94
2022/02/24 06:11:02;;;;;;;7.70;3.90;;;;;;;-0.01;100.00;100785.06;6068032;23;20030;-94
2022/02/24 06:13:29;;;;;;;7.30;4.00;;;;;;;0.07;100.00;100785.25;6044800;23;20007;-93
2022/02/24 06:15:56;;;;;;;10.47;3.77;;;;;;;0.15;100.00;100786.31;6043330;23;20031;-92
2022/02/24 06:18:25;;;;;;;9.97;3.80;;;;;;;0.22;100.00;100788.22;6044429;23;20325;-93
2022/02/24 06:20:52;;;;;;;7.53;3.60;;;;;;;0.32;100.00;100789.28;6044882;23;20007;-94
2022/02/24 06:23:19;;;;;;;8.30;3.73;;;;;;;0.46;100.00;100778.38;6046124;23;20022;-94
2022/02/24 06:25:53;;;;;;;11.98;3.72;;;;;;;0.45;100.00;100787.00;6047015;23;20031;-93
2022/02/24 06:28:23;;;;;;;11.27;3.93;;;;;;;0.51;100.00;100779.38;6047327;23;20011;-92
2022/02/24 06:30:50;;;;;;;7.53;3.20;;;;;;;0.51;100.00;100776.75;6044448;23;20031;-92
2022/02/24 06:33:17;;;;;;;7.10;3.00;;;;;;;0.69;100.00;100776.28;6046018;23;20021;-93
2022/02/24 06:35:47;;;;;;;10.40;4.47;;;;;;;0.89;100.00;100774.09;6045976;23;20007;-93
2022/02/24 06:38:21;;;;;;;8.63;3.72;;;;;;;0.96;100.00;100781.16;6047111;23;20021;-93
2022/02/24 06:40:50;;;;;;;5.07;3.50;;;;;;;0.93;100.00;100772.44;6070470;23;20011;-94
2022/02/24 06:43:20;;;;;;;16.13;4.20;;;;;;;1.01;100.00;100766.53;6045981;23;20011;-94
2022/02/24 06:45:47;;;;;;;6.23;3.27;;;;;;;0.99;100.00;100765.59;6044545;23;20007;-94
2022/02/24 06:48:14;;;;;;;5.30;3.40;;;;;;;1.10;100.00;100763.25;6045816;23;20062;-94
2022/02/24 06:50:44;;;;;;;10.77;3.30;;;;;;;1.18;100.00;100756.47;6046556;23;20014;-92
2022/02/24 06:53:11;;;;;;;6.63;3.50;;;;;;;1.32;100.00;100748.88;6046091;23;20027;-94
2022/02/24 06:55:41;;;;;;;7.80;3.53;;;;;;;1.47;100.00;100758.72;6045411;23;20034;-93
2022/02/24 06:58:08;;;;;;;6.80;3.67;;;;;;;1.51;100.00;100755.28;6046243;23;20007;-94
2022/02/24 07:00:34;;;;;;;7.17;3.70;;;;;;;1.53;100.00;100741.47;6045190;23;20241;-93
2022/02/24 07:03:04;;;;;;;6.80;3.23;;;;;;;1.58;100.00;100741.53;6022995;23;20030;-95
2022/02/24 07:05:31;;;;;;;9.63;3.37;;;;;;;1.65;100.00;100744.28;6045362;23;20045;-93
2022/02/24 07:08:04;;;;;;;7.73;3.40;;;;;;;1.77;100.00;100732.34;6046289;23;20006;-93
2022/02/24 07:10:30;;;;;;;6.10;3.30;;;;;;;1.78;100.00;100728.88;6071852;23;20010;-94
2022/02/24 07:13:00;;;;;;;8.40;3.70;;;;;;;1.80;100.00;100737.59;6048243;23;20002;-94
2022/02/24 07:15:27;;;;;;;10.60;4.10;;;;;;;1.96;100.00;100726.56;6048355;23;20023;-95
2022/02/24 07:17:53;;;;;;;9.87;4.00;;;;;;;2.08;100.00;100724.13;6048982;23;20008;-94
2022/02/24 07:20:25;;;;;;;6.00;3.50;;;;;;;2.19;100.00;100725.16;6049347;23;20015;-95
2022/02/24 07:22:51;;;;;;;8.80;4.33;;;;;;;2.31;100.00;100723.59;6048790;23;19999;-93
2022/02/24 07:25:20;;;;;;;9.77;5.30;;;;;;;2.39;100.00;100719.34;6071180;23;20015;-94
2022/02/24 07:27:50;;;;;;;6.30;3.60;;;;;;;2.38;100.00;100733.25;6048740;23;20019;-94
2022/02/24 07:30:37;;;;;;;9.57;3.80;;;;;;;2.34;100.00;100727.09;6075785;23;20245;-92
2022/02/24 07:33:07;;;;;;;5.63;3.57;;;;;;;2.47;100.00;100726.41;6071816;23;20010;-93
2022/02/24 07:35:34;;;;;;;8.27;3.40;;;;;;;2.46;100.00;100726.41;6072212;23;20014;-94
2022/02/24 07:38:01;;;;;;;6.43;3.57;;;;;;;2.46;100.00;100724.66;6048620;23;20033;-92
2022/02/24 07:40:35;;;;;;;9.73;4.53;;;;;;;2.51;100.00;100729.94;6050134;23;20010;-95
2022/02/24 07:43:05;;;;;;;5.70;3.73;;;;;;;2.49;100.00;100724.69;6071791;23;20002;-94
2022/02/24 07:45:32;;;;;;;8.93;3.97;;;;;;;2.51;100.00;100724.72;6065909;23;20011;-93
2022/02/24 07:47:58;;;;;;;8.37;3.50;;;;;;;2.47;100.00;100723.81;6048211;23;20070;-93
2022/02/24 07:50:29;;;;;;;6.53;3.23;;;;;;;2.61;100.00;100718.78;6050445;23;20006;-94
2022/02/24 07:52:57;;;;;;;7.87;3.87;;;;;;;2.66;100.00;100705.78;6096391;23;20014;-93
2022/02/24 07:55:28;;;;;;;7.87;4.27;;;;;;;2.65;100.00;100707.53;6049602;23;20006;-94
2022/02/24 07:57:55;;;;;;;7.43;3.43;;;;;;;2.66;100.00;100706.66;6072685;23;20014;-93
2022/02/24 08:00:25;;;;;;;5.17;3.27;;;;;;;2.72;100.00;100696.31;6095801;23;20007;-93
2022/02/24 08:02:51;;;;;;;5.30;3.67;;;;;;;2.80;100.00;100694.66;6048636;23;20006;-92
2022/02/24 08:05:21;;;;;;;5.77;3.43;;;;;;;2.81;100.00;100693.81;6071960;23;20070;-93
2022/02/24 08:07:50;;;;;;;7.17;4.33;;;;;;;3.05;98.25;100690.59;6048314;23;20015;-93
2022/02/24 08:10:21;;;;;;;9.37;3.80;;;;;;;3.04;98.76;100693.19;6048674;23;20010;-92
2022/02/24 08:12:48;;;;;;;9.30;3.80;;;;;;;3.13;98.92;100695.03;6063701;23;20382;-80
2022/02/24 08:15:18;;;;;;;5.20;3.10;;;;;;;3.18;99.37;100686.34;6064503;23;20026;-81
2022/02/24 08:17:46;;;;;;;12.50;3.10;;;;;;;3.23;98.97;100679.47;6039224;23;20051;-79
2022/02/24 08:20:13;;;;;;;6.77;2.97;;;;;;;3.32;98.30;100668.22;6064497;23;20027;-82
2022/02/24 08:22:42;;;;;;;4.93;3.00;;;;;;;3.47;95.59;100665.75;6065559;23;20027;-81
2022/02/24 08:25:12;;;;;;;9.27;3.67;;;;;;;3.52;94.56;100664.03;6036506;23;20094;-82
2022/02/24 08:27:44;;;;;;;7.77;3.73;;;;;;;3.68;95.84;100651.97;6042628;23;20554;-80
2022/02/24 08:30:17;;;;;;;7.60;3.57;;;;;;;3.77;95.56;100643.31;6039918;23;20054;-83
2022/02/24 08:32:45;;;;;;;8.43;4.30;;;;;;;3.99;93.08;100640.00;6066276;23;20075;-82
2022/02/24 08:35:13;;;;;;;6.53;3.93;;;;;;;4.07;92.28;100627.84;6042516;23;20079;-81
2022/02/24 08:37:44;;;;;;;6.80;4.07;;;;;;;4.13;93.11;100625.25;6042534;23;20046;-83
2022/02/24 08:40:11;;;;;;;7.40;3.90;;;;;;;4.29;91.91;100614.84;6067562;23;20026;-80
2022/02/24 08:42:38;;;;;;;7.57;3.93;;;;;;;4.45;89.20;100616.66;6066358;23;20074;-81
2022/02/24 08:45:05;;;;;;;9.07;3.20;;;;;;;4.64;89.91;100615.00;6065892;23;20023;-81
2022/02/24 08:47:36;;;;;;;7.17;3.17;;;;;;;4.74;87.88;100617.66;6064342;23;20022;-82
2022/02/24 08:50:04;;;;;;;4.90;3.40;;;;;;;4.89;86.29;100610.72;6066469;23;20086;-80
2022/02/24 08:52:51;;;;;;;5.97;3.70;;;;;;;4.98;86.43;100600.25;6070320;23;20061;-81
2022/02/24 08:55:18;;;;;;;6.33;3.10;;;;;;;5.09;87.48;100593.25;6065728;23;20022;-81
2022/02/24 08:57:44;;;;;;;5.73;3.43;;;;;;;5.22;85.82;100596.78;6066527;23;20026;-82
2022/02/24 09:00:12;;;;;;;5.50;3.20;;;;;;;5.22;84.91;100586.31;6089399;23;20383;-81
2022/02/24 09:02:38;;;;;;;8.60;3.50;;;;;;;5.29;84.13;100583.66;6042941;23;20018;-80
2022/02/24 09:05:05;;;;;;;7.43;2.60;;;;;;;5.29;84.87;100573.16;6089659;23;20804;-82
2022/02/24 09:07:33;;;;;;;6.33;3.67;;;;;;;5.37;83.42;100576.66;6073048;23;20033;-82
2022/02/24 09:10:20;;;;;;;9.77;3.97;;;;;;;5.53;82.74;100569.66;6078388;23;20030;-82
2022/02/24 09:12:47;;;;;;;6.97;3.07;;;;;;;5.56;84.41;100574.91;6073256;23;20027;-82
2022/02/24 09:15:13;;;;;;;5.93;3.27;;;;;;;5.76;82.10;100563.50;6070502;23;20018;-83
2022/02/24 09:17:40;;;;;;;9.93;3.90;;;;;;;5.95;82.32;100553.88;6048847;23;20027;-82
2022/02/24 09:20:08;;;;;;;5.87;3.00;;;;;;;6.14;82.28;100551.19;6073096;23;20407;-81
2022/02/24 09:22:35;;;;;;;7.47;3.77;;;;;;;6.36;80.38;100545.84;6072373;23;20520;-82
2022/02/24 09:25:03;;;;;;;8.83;3.40;;;;;;;6.66;79.39;100539.56;6023045;23;20019;-82
2022/02/24 09:27:30;;;;;;;6.20;3.30;;;;;;;6.77;78.64;100542.97;6070808;23;20029;-82
2022/02/24 09:29:58;;;;;;;5.57;2.77;;;;;;;6.84;76.59;100535.91;6045940;23;20027;-82
2022/02/24 09:32:26;;;;;;;10.23;2.90;;;;;;;6.85;76.98;100529.78;6023018;23;20027;-81
2022/02/24 09:34:53;;;;;;;6.07;3.00;;;;;;;6.89;76.49;100516.59;6070272;23;20458;-82
2022/02/24 09:37:20;;;;;;;8.27;3.17;;;;;;;7.01;77.92;100516.53;6045587;23;20146;-82
2022/02/24 09:39:47;;;;;;;7.60;4.00;;;;;;;7.22;76.48;100506.69;6069246;23;20046;-82
2022/02/24 09:42:14;;;;;;;5.27;2.57;;;;;;;7.46;74.09;100500.34;6068824;23;20027;-82
2022/02/24 09:44:41;;;;;;;5.03;2.80;;;;;;;7.55;74.84;100508.13;6067719;23;20455;-81
2022/02/24 09:47:09;;;;;;;8.07;3.20;;;;;;;7.76;71.23;100494.75;6045268;23;20052;-81
2022/02/24 09:49:39;;;;;;;5.87;2.93;;;;;;;7.86;73.60;100498.13;6068218;23;20455;-82
2022/02/24 09:52:06;;;;;;;4.63;2.93;;;;;;;8.03;73.58;100496.16;6044251;23;20027;-83
2022/02/24 09:54:33;;;;;;;4.50;2.70;;;;;;;8.21;72.22;100487.16;6043671;23;20033;-83
2022/02/24 09:57:00;;;;;;;7.10;3.07;;;;;;;8.46;69.54;100482.44;6067805;23;20026;-81
2022/02/24 09:59:27;;;;;;;4.80;2.60;;;;;;;8.67;69.68;100486.53;6043369;23;20086;-81
2022/02/24 10:01:53;;;;;;;7.30;2.42;;;;;;;8.83;68.47;100472.25;6043019;23;20110;-81
2022/02/24 10:04:23;;;;;;;10.73;3.55;;;;;;;8.93;69.28;100468.56;6067074;23;20029;-82
2022/02/24 10:06:50;;;;;;;4.03;2.85;;;;;;;8.96;68.49;100459.72;6089683;23;20026;-82
2022/02/24 10:09:29;;;;;;;6.72;2.58;;;;;;;9.02;66.97;100460.50;6042793;23;20022;-83
2022/02/24 10:12:16;;;;;;;5.07;2.90;;;;;;;9.02;66.66;100455.22;6018179;23;20406;-83
2022/02/24 10:14:43;;;;;;;3.97;2.30;;;;;;;9.21;65.45;100446.97;6018728;23;20528;-82
2022/02/24 10:17:15;;;;;;;6.25;2.80;;;;;;;9.25;65.97;100443.41;6019086;23;20033;-81
2022/02/24 10:19:46;;;;;;;5.85;2.78;;;;;;;9.34;65.64;100427.41;6066325;23;20037;-81
2022/02/24 10:22:30;;;;;;;6.13;3.00;;;;;;;9.46;65.96;100428.94;6040456;23;20457;-82
2022/02/24 10:25:03;;;;;;;4.83;3.17;;;;;;;9.40;65.43;100432.53;6064135;23;20027;-81
2022/02/24 10:27:35;;;;;;;;;;;;;;;9.18;65.05;100433.88;6065844;23;20023;-80
2022/02/24 10:30:05;;;;;;;4.65;2.78;;;;;;;8.96;64.93;100436.00;6065836;23;19922;-82
2022/02/24 10:32:45;;;;;;;4.55;2.83;;;;;;;8.78;65.57;100415.25;6089257;23;20037;-81
2022/02/24 10:35:39;;;;;;;5.32;2.58;;;;;;;8.72;67.65;100410.94;6017541;23;20054;-82
2022/02/24 10:38:13;;;;;;;4.30;2.75;;;;;;;8.78;68.15;100407.34;6066178;23;20022;-80
2022/02/24 10:40:43;;;;;;;5.10;2.90;;;;;;;8.74;68.51;100410.03;6064547;23;20062;-82
2022/02/24 10:43:11;;;;;;;5.68;3.20;;;;;;;8.82;68.42;100393.22;6041839;23;20027;-83
2022/02/24 10:45:39;;;;;;;6.30;3.00;;;;;;;8.86;68.36;100393.16;6041013;23;20033;-80
2022/02/24 10:48:07;;;;;;;5.45;2.90;;;;;;;8.84;67.11;100389.69;6065966;23;20392;-81
2022/02/24 10:50:50;;;;;;;5.38;3.03;;;;;;;8.85;67.84;100385.28;6065789;23;20035;-82
2022/02/24 10:53:30;;;;;;;6.03;2.63;;;;;;;8.95;67.35;100376.31;6090042;23;20027;-79
2022/02/24 10:55:59;;;;;;;8.63;3.30;;;;;;;8.98;67.13;100376.22;6065951;23;20023;-80
2022/02/24 10:58:28;;;;;;;4.60;2.70;;;;;;;9.09;67.24;100369.03;6040882;23;20027;-79
2022/02/24 11:01:10;;;;;;;4.97;3.20;;;;;;;9.25;67.46;100365.19;6064037;23;20087;-80
2022/02/24 11:03:37;;;;;;;4.60;2.60;;;;;;;9.44;66.78;100356.91;6064859;23;20021;-80
2022/02/24 11:06:05;;;;;;;6.13;2.78;;;;;;;9.49;65.06;100355.03;6064200;23;21046;-81
2022/02/24 11:08:33;;;;;;;6.43;2.85;;;;;;;9.36;65.81;100351.78;6091067;23;20030;-79
2022/02/24 11:11:02;;;;;;;10.48;3.55;;;;;;;9.43;66.66;100344.63;6065887;23;20026;-79
2022/02/24 11:13:30;;;;;;;6.03;2.70;;;;;;;9.41;67.07;100344.63;6064444;23;20026;-78
2022/02/24 11:15:58;;;;;;;4.78;2.50;;;;;;;9.38;65.58;100342.06;6062934;23;20018;-79
2022/02/24 11:18:25;;;;;;;6.78;3.20;;;;;;;9.34;65.60;100336.91;6039710;23;20050;-80
2022/02/24 11:20:52;;;;;;;6.68;2.67;;;;;;;9.26;65.52;100330.03;6064123;23;20030;-81
2022/02/24 11:23:20;;;;;;;3.58;2.50;;;;;;;9.28;66.33;100332.63;6064299;23;20109;-81
2022/02/24 11:25:53;;;;;;;5.25;3.20;;;;;;;9.31;66.82;100324.63;6063183;23;20533;-79
2022/02/24 11:28:22;;;;;;;5.85;3.00;;;;;;;9.27;65.50;100321.22;6064129;23;20027;-81